createdAt,value
2017-12-19T00:00:28.468Z,99.90
2017-12-19T00:02:55.351Z,99.90
2017-12-19T00:05:23.228Z,99.90
2017-12-19T00:07:53.673Z,99.90
2017-12-19T00:10:21.888Z,99.90
2017-12-19T00:12:49.016Z,99.90
2017-12-19T00:15:16.132Z,99.90
2017-12-19T00:17:43.245Z,99.90
2017-12-19T00:20:10.485Z,99.90
2017-12-19T00:22:39.524Z,99.90
2017-12-19T00:25:06.616Z,99.90
2017-12-19T00:27:33.794Z,99.90
2017-12-19T00:30:00.829Z,99.90
2017-12-19T00:32:27.786Z,99.90
2017-12-19T00:34:54.870Z,99.90
2017-12-19T00:37:22.676Z,99.90
2017-12-19T00:39:49.757Z,99.90
2017-12-19T00:42:17.039Z,99.90
2017-12-19T00:44:44.887Z,99.90
2017-12-19T00:47:11.986Z,99.90
2017-12-19T00:49:39.147Z,99.90
2017-12-19T00:52:06.305Z,99.90
2017-12-19T00:54:34.178Z,99.90
2017-12-19T00:57:01.164Z,99.90
2017-12-19T00:59:28.919Z,99.90
2017-12-19T01:01:55.944Z,99.90
2017-12-19T01:04:23.051Z,99.90
2017-12-19T01:06:50.124Z,99.90
2017-12-19T01:09:17.126Z,99.90
2017-12-19T01:11:44.930Z,99.90
2017-12-19T01:14:12.051Z,99.90
2017-12-19T01:16:39.884Z,99.90
2017-12-19T01:19:06.865Z,99.90
2017-12-19T01:21:33.899Z,99.90
2017-12-19T01:24:01.028Z,99.90
2017-12-19T01:26:27.921Z,99.90
2017-12-19T01:28:54.901Z,99.90
2017-12-19T01:31:21.988Z,99.90
2017-12-19T01:33:49.064Z,99.90
2017-12-19T01:36:16.826Z,99.90
2017-12-19T01:38:44.699Z,99.90
2017-12-19T01:41:11.568Z,99.90
2017-12-19T01:43:39.082Z,99.90
2017-12-19T01:46:06.036Z,99.90
2017-12-19T01:48:33.724Z,99.90
2017-12-19T01:51:00.748Z,99.90
2017-12-19T01:53:28.469Z,99.90
2017-12-19T01:55:55.525Z,99.90
2017-12-19T01:58:22.628Z,99.90
2017-12-19T02:00:49.759Z,99.90
2017-12-19T02:03:17.408Z,99.90
2017-12-19T02:05:44.439Z,99.90
2017-12-19T02:08:11.453Z,99.90
2017-12-19T02:10:38.569Z,99.90
2017-12-19T02:13:06.311Z,99.90
2017-12-19T02:15:33.423Z,99.90
2017-12-19T02:18:00.507Z,99.90
2017-12-19T02:20:27.604Z,99.90
2017-12-19T02:22:54.851Z,99.90
2017-12-19T02:25:22.937Z,99.90
2017-12-19T02:27:50.064Z,99.90
2017-12-19T02:30:17.915Z,99.90
2017-12-19T02:32:45.128Z,99.90
2017-12-19T02:35:12.251Z,99.90
2017-12-19T02:37:39.341Z,99.90
2017-12-19T02:40:06.467Z,99.90
2017-12-19T02:42:45.675Z,99.90
2017-12-19T02:45:12.780Z,99.90
2017-12-19T02:47:39.939Z,99.90
2017-12-19T02:50:07.035Z,99.90
2017-12-19T02:52:34.164Z,99.90
2017-12-19T02:55:02.052Z,99.90
2017-12-19T02:57:29.101Z,99.90
2017-12-19T02:59:56.327Z,99.90
2017-12-19T03:02:23.366Z,99.90
2017-12-19T03:04:50.611Z,99.90
2017-12-19T03:07:17.809Z,99.90
2017-12-19T03:09:45.065Z,99.90
2017-12-19T03:12:12.218Z,99.90
2017-12-19T03:14:39.282Z,99.90
2017-12-19T03:17:06.380Z,99.90
2017-12-19T03:19:34.219Z,99.90
2017-12-19T03:22:01.515Z,99.90
2017-12-19T03:24:29.282Z,99.90
2017-12-19T03:26:57.286Z,99.90
2017-12-19T03:29:24.332Z,99.90
2017-12-19T03:31:51.461Z,99.90
2017-12-19T03:34:18.768Z,99.90
2017-12-19T03:36:45.858Z,99.90
2017-12-19T03:39:13.106Z,99.90
2017-12-19T03:41:41.057Z,99.90
2017-12-19T03:44:08.935Z,99.90
2017-12-19T03:46:36.099Z,99.90
2017-12-19T03:49:03.079Z,99.90
2017-12-19T03:51:30.863Z,99.90
2017-12-19T03:53:58.748Z,99.90
2017-12-19T03:56:26.411Z,99.90
2017-12-19T03:58:54.747Z,99.90
2017-12-19T04:01:23.092Z,99.90
2017-12-19T04:03:51.647Z,99.90
2017-12-19T04:06:19.191Z,99.90
2017-12-19T04:08:47.247Z,99.90
2017-12-19T04:11:17.490Z,99.90
2017-12-19T04:13:44.764Z,99.90
2017-12-19T04:16:13.407Z,99.90
2017-12-19T04:18:41.505Z,99.90
2017-12-19T04:21:09.619Z,99.90
2017-12-19T04:23:37.485Z,99.90
2017-12-19T04:26:04.599Z,99.90
2017-12-19T04:28:31.595Z,99.90
2017-12-19T04:30:59.419Z,99.90
2017-12-19T04:33:26.552Z,99.90
2017-12-19T04:35:53.649Z,99.90
2017-12-19T04:38:21.417Z,99.90
2017-12-19T04:40:49.331Z,99.90
2017-12-19T04:43:16.389Z,99.90
2017-12-19T04:45:43.651Z,99.90
2017-12-19T04:48:10.795Z,99.90
2017-12-19T04:50:37.951Z,99.90
2017-12-19T04:53:05.057Z,99.90
2017-12-19T04:55:32.887Z,99.90
2017-12-19T04:58:00.244Z,99.90
2017-12-19T05:00:27.222Z,99.90
2017-12-19T05:02:54.884Z,99.90
2017-12-19T05:05:22.945Z,99.90
2017-12-19T05:07:50.236Z,99.90
2017-12-19T05:10:17.270Z,99.90
2017-12-19T05:12:44.968Z,99.90
2017-12-19T05:15:12.023Z,99.90
2017-12-19T05:17:39.016Z,99.90
2017-12-19T05:20:06.877Z,99.90
2017-12-19T05:22:33.851Z,99.90
2017-12-19T05:25:00.857Z,99.90
2017-12-19T05:27:41.267Z,99.90
2017-12-19T05:30:12.562Z,99.90
2017-12-19T05:32:39.662Z,99.90
2017-12-19T05:35:06.679Z,99.90
2017-12-19T05:37:33.653Z,99.90
2017-12-19T05:40:01.361Z,99.90
2017-12-19T05:42:28.420Z,99.90
2017-12-19T05:44:55.356Z,99.90
2017-12-19T05:47:23.564Z,99.90
2017-12-19T05:49:52.662Z,99.90
2017-12-19T05:52:23.707Z,99.90
2017-12-19T05:54:51.936Z,99.90
2017-12-19T05:57:19.206Z,99.90
2017-12-19T05:59:47.332Z,99.90
2017-12-19T06:02:14.351Z,99.90
2017-12-19T06:04:52.713Z,99.90
2017-12-19T06:07:25.281Z,99.90
2017-12-19T06:09:52.603Z,99.90
2017-12-19T06:12:20.009Z,99.90
2017-12-19T06:14:47.013Z,99.90
2017-12-19T06:17:14.786Z,99.90
2017-12-19T06:19:43.369Z,99.90
2017-12-19T06:22:11.066Z,99.90
2017-12-19T06:24:39.521Z,99.90
2017-12-19T06:27:09.174Z,99.90
2017-12-19T06:29:36.636Z,99.90
2017-12-19T06:32:03.661Z,99.90
2017-12-19T06:34:37.118Z,99.90
2017-12-19T06:37:05.868Z,99.90
2017-12-19T06:39:33.101Z,99.90
2017-12-19T06:42:04.300Z,99.90
2017-12-19T06:44:31.388Z,99.90
2017-12-19T06:46:59.085Z,99.90
2017-12-19T06:49:26.046Z,99.90
2017-12-19T06:51:55.572Z,99.90
2017-12-19T06:54:22.889Z,99.90
2017-12-19T06:56:50.560Z,99.90
2017-12-19T06:59:19.513Z,99.90
2017-12-19T07:01:48.379Z,99.90
2017-12-19T07:04:16.555Z,99.90
2017-12-19T07:06:44.262Z,99.90
2017-12-19T07:09:11.348Z,99.90
2017-12-19T07:11:39.298Z,99.90
2017-12-19T07:14:07.015Z,99.90
2017-12-19T07:16:36.029Z,99.90
2017-12-19T07:19:04.992Z,99.90
2017-12-19T07:21:31.907Z,99.90
2017-12-19T07:23:59.036Z,99.90
2017-12-19T07:26:26.030Z,99.90
2017-12-19T07:28:56.874Z,99.90
2017-12-19T07:31:24.200Z,99.90
2017-12-19T07:33:58.137Z,99.90
2017-12-19T07:36:28.024Z,99.90
2017-12-19T07:38:55.639Z,99.90
2017-12-19T07:41:22.765Z,99.90
2017-12-19T07:43:49.799Z,99.90
2017-12-19T07:46:17.456Z,99.90
2017-12-19T07:48:44.352Z,99.90
2017-12-19T07:51:15.640Z,99.90
2017-12-19T07:53:42.543Z,99.90
2017-12-19T07:56:09.450Z,99.90
2017-12-19T07:58:36.954Z,99.90
2017-12-19T08:01:05.092Z,99.90
2017-12-19T08:03:33.208Z,99.90
2017-12-19T08:06:00.167Z,99.90
2017-12-19T08:08:27.123Z,99.90
2017-12-19T08:10:59.651Z,99.90
2017-12-19T08:13:26.574Z,99.90
2017-12-19T08:15:56.815Z,99.90
2017-12-19T08:18:24.519Z,99.90
2017-12-19T08:20:52.448Z,99.90
2017-12-19T08:23:19.364Z,99.90
2017-12-19T08:25:47.739Z,99.90
2017-12-19T08:28:22.602Z,99.90
2017-12-19T08:30:51.171Z,99.90
2017-12-19T08:33:18.533Z,99.90
2017-12-19T08:35:47.124Z,99.90
2017-12-19T08:38:14.093Z,99.90
2017-12-19T08:40:41.984Z,99.90
2017-12-19T08:43:08.941Z,99.90
2017-12-19T08:45:36.863Z,99.90
2017-12-19T08:48:04.601Z,99.90
2017-12-19T08:50:35.593Z,99.90
2017-12-19T08:53:08.142Z,99.90
2017-12-19T08:55:35.020Z,99.90
2017-12-19T08:58:04.563Z,99.90
2017-12-19T09:00:32.368Z,99.90
2017-12-19T09:03:00.238Z,99.90
2017-12-19T09:05:27.996Z,99.90
2017-12-19T09:07:55.619Z,99.90
2017-12-19T09:10:22.515Z,99.90
2017-12-19T09:12:50.192Z,99.90
2017-12-19T09:15:17.076Z,99.90
2017-12-19T09:17:44.116Z,99.90
2017-12-19T09:20:10.997Z,99.90
2017-12-19T09:22:37.912Z,99.90
2017-12-19T09:25:04.820Z,99.90
2017-12-19T09:27:31.767Z,99.90
2017-12-19T09:29:58.664Z,99.90
2017-12-19T09:32:25.612Z,99.90
2017-12-19T09:34:52.532Z,99.90
2017-12-19T09:37:19.455Z,99.90
2017-12-19T09:39:46.425Z,99.90
2017-12-19T09:42:13.305Z,99.90
2017-12-19T09:44:40.251Z,99.90
2017-12-19T09:47:07.132Z,99.80
2017-12-19T09:49:34.052Z,99.80
2017-12-19T09:52:05.704Z,99.70
2017-12-19T09:54:36.545Z,99.80
2017-12-19T09:57:03.521Z,99.90
2017-12-19T09:59:30.530Z,99.80
2017-12-19T10:01:58.163Z,99.60
2017-12-19T10:04:25.176Z,99.90
2017-12-19T10:06:56.595Z,99.90
2017-12-19T10:09:24.739Z,99.90
2017-12-19T10:11:51.700Z,99.70
2017-12-19T10:14:21.824Z,99.70
2017-12-19T10:16:49.293Z,99.90
2017-12-19T10:19:17.021Z,99.80
2017-12-19T10:21:44.008Z,99.60
2017-12-19T10:24:11.504Z,99.50
2017-12-19T10:26:38.524Z,99.30
2017-12-19T10:29:07.101Z,99.30
2017-12-19T10:31:34.565Z,99.30
2017-12-19T10:34:02.259Z,98.60
2017-12-19T10:36:33.302Z,98.60
2017-12-19T10:39:00.528Z,98.90
2017-12-19T10:41:29.103Z,98.70
2017-12-19T10:43:59.734Z,98.70
2017-12-19T10:46:26.756Z,98.60
2017-12-19T10:48:53.674Z,97.70
2017-12-19T10:51:20.618Z,97.90
2017-12-19T10:53:47.511Z,97.70
2017-12-19T10:56:14.429Z,97.50
2017-12-19T10:58:41.435Z,97.40
2017-12-19T11:01:08.397Z,98.10
2017-12-19T11:03:35.270Z,97.90
2017-12-19T11:06:02.220Z,97.50
2017-12-19T11:08:29.161Z,97.70
2017-12-19T11:11:11.501Z,97.80
2017-12-19T11:13:39.018Z,97.90
2017-12-19T11:16:05.887Z,97.70
2017-12-19T11:18:32.868Z,97.60
2017-12-19T11:21:12.186Z,97.50
2017-12-19T11:23:42.325Z,97.70
2017-12-19T11:26:12.968Z,97.60
2017-12-19T11:28:49.910Z,97.30
2017-12-19T11:31:26.711Z,97.40
2017-12-19T11:34:08.701Z,97.30
2017-12-19T11:39:36.442Z,96.90
2017-12-19T11:42:14.915Z,96.90
2017-12-19T11:44:54.298Z,96.60
2017-12-19T11:47:34.509Z,96.60
2017-12-19T11:50:11.910Z,96.70
2017-12-19T11:52:49.923Z,97.10
2017-12-19T11:55:26.856Z,96.90
2017-12-19T11:58:10.418Z,96.90
2017-12-19T12:00:49.044Z,97.10
2017-12-19T12:06:14.611Z,96.90
2017-12-19T12:08:55.115Z,97.30
2017-12-19T12:11:34.530Z,97.40
2017-12-19T12:14:12.506Z,97.10
2017-12-19T12:16:47.103Z,97.10
2017-12-19T12:19:26.202Z,97.10
2017-12-19T12:22:04.452Z,96.60
2017-12-19T12:24:41.827Z,96.60
2017-12-19T12:27:23.277Z,96.20
2017-12-19T12:29:58.696Z,96.30
2017-12-19T12:32:38.035Z,96.50
2017-12-19T12:35:14.371Z,96.60
2017-12-19T12:37:51.045Z,97.00
2017-12-19T12:40:33.204Z,97.00
2017-12-19T12:43:12.950Z,97.00
2017-12-19T12:45:52.785Z,97.00
2017-12-19T12:48:28.773Z,96.70
2017-12-19T12:51:11.212Z,97.40
2017-12-19T12:53:54.346Z,97.10
2017-12-19T12:56:35.087Z,97.30
2017-12-19T12:59:13.722Z,97.40
2017-12-19T13:01:53.021Z,97.30
2017-12-19T13:04:28.213Z,97.10
2017-12-19T13:07:09.385Z,97.50
2017-12-19T13:09:47.902Z,97.40
2017-12-19T13:12:30.018Z,97.30
2017-12-19T13:15:10.220Z,97.50
2017-12-19T13:17:51.722Z,97.90
2017-12-19T13:20:34.516Z,97.50
2017-12-19T13:23:13.845Z,97.80
2017-12-19T13:25:54.265Z,97.60
2017-12-19T13:28:35.446Z,97.70
2017-12-19T13:31:12.247Z,98.10
2017-12-19T13:33:52.292Z,98.10
2017-12-19T13:36:25.848Z,97.40
2017-12-19T13:38:59.634Z,97.90
2017-12-19T13:41:39.210Z,97.40
2017-12-19T13:46:58.852Z,97.60
2017-12-19T13:49:38.992Z,97.70
2017-12-19T13:52:19.539Z,98.00
2017-12-19T13:54:56.485Z,97.90
2017-12-19T13:57:30.070Z,98.10
2017-12-19T14:00:13.157Z,98.40
2017-12-19T14:02:48.965Z,98.40
2017-12-19T14:05:30.253Z,98.40
2017-12-19T14:08:05.481Z,98.40
2017-12-19T14:10:40.087Z,98.20
2017-12-19T14:13:14.429Z,98.50
2017-12-19T14:15:51.441Z,98.50
2017-12-19T14:18:31.921Z,98.80
2017-12-19T14:21:08.226Z,98.80
2017-12-19T14:23:42.534Z,98.80
2017-12-19T14:26:19.589Z,98.70
2017-12-19T14:28:55.189Z,98.60
2017-12-19T14:31:29.677Z,99.00
2017-12-19T14:34:06.291Z,98.60
2017-12-19T14:36:43.214Z,98.90
2017-12-19T14:39:18.691Z,99.00
2017-12-19T14:41:55.913Z,98.90
2017-12-19T14:44:30.328Z,98.90
2017-12-19T14:47:05.532Z,98.90
2017-12-19T14:49:40.352Z,99.10
2017-12-19T14:52:17.375Z,99.10
2017-12-19T14:54:52.275Z,99.40
2017-12-19T14:57:29.682Z,99.40
2017-12-19T15:00:08.267Z,99.40
2017-12-19T15:02:43.844Z,99.70
2017-12-19T15:05:21.955Z,99.90
2017-12-19T15:07:56.985Z,99.90
2017-12-19T15:10:31.142Z,99.90
2017-12-19T15:13:09.356Z,99.90
2017-12-19T15:15:43.772Z,99.90
2017-12-19T15:18:20.737Z,99.90
2017-12-19T15:21:02.412Z,99.90
2017-12-19T15:26:16.041Z,99.90
2017-12-19T15:28:54.249Z,99.90
2017-12-19T15:31:22.851Z,99.90
2017-12-19T15:33:55.980Z,99.90
2017-12-19T15:36:25.083Z,99.90
2017-12-19T15:39:01.188Z,99.90
2017-12-19T15:41:34.452Z,99.90
2017-12-19T15:44:08.870Z,99.90
2017-12-19T15:46:36.216Z,99.90
2017-12-19T15:49:06.658Z,99.90
2017-12-19T15:51:36.006Z,99.90
2017-12-19T15:54:10.028Z,99.90
2017-12-19T15:56:43.615Z,99.90
2017-12-19T15:59:14.022Z,99.90
2017-12-19T16:01:45.198Z,99.90
2017-12-19T16:04:14.574Z,99.90
2017-12-19T16:06:44.668Z,99.90
2017-12-19T16:09:12.400Z,99.90
2017-12-19T16:11:46.522Z,99.90
2017-12-19T16:14:13.811Z,99.90
2017-12-19T16:16:48.895Z,99.90
2017-12-19T16:19:20.627Z,99.90
2017-12-19T16:21:47.576Z,99.90
2017-12-19T16:24:14.493Z,99.90
2017-12-19T16:26:41.438Z,99.90
2017-12-19T16:29:13.530Z,99.90
2017-12-19T16:31:42.504Z,99.90
2017-12-19T16:34:22.154Z,99.90
2017-12-19T16:36:49.976Z,99.90
2017-12-19T16:39:16.852Z,99.90
2017-12-19T16:41:43.948Z,99.90
2017-12-19T16:44:11.607Z,99.90
2017-12-19T16:46:40.114Z,99.90
2017-12-19T16:49:07.065Z,99.90
2017-12-19T16:51:33.968Z,99.90
2017-12-19T16:54:01.149Z,99.90
2017-12-19T16:56:28.973Z,99.90
2017-12-19T16:58:56.042Z,99.90
2017-12-19T17:01:23.727Z,99.90
2017-12-19T17:03:50.584Z,99.90
2017-12-19T17:06:17.555Z,99.90
2017-12-19T17:08:44.424Z,99.90
2017-12-19T17:11:11.452Z,99.90
2017-12-19T17:13:38.411Z,99.90
2017-12-19T17:16:05.292Z,99.90
2017-12-19T17:18:36.349Z,99.90
2017-12-19T17:21:04.458Z,99.90
2017-12-19T17:23:31.889Z,99.90
2017-12-19T17:25:58.884Z,99.90
2017-12-19T17:28:25.816Z,99.90
2017-12-19T17:30:57.860Z,99.90
2017-12-19T17:33:24.995Z,99.90
2017-12-19T17:35:55.432Z,99.90
2017-12-19T17:38:22.979Z,99.90
2017-12-19T17:40:57.093Z,99.90
2017-12-19T17:43:23.993Z,99.90
2017-12-19T17:45:57.608Z,99.90
2017-12-19T17:48:34.551Z,99.90
2017-12-19T17:51:06.329Z,99.90
2017-12-19T17:53:33.603Z,99.90
2017-12-19T17:56:01.357Z,99.90
2017-12-19T17:58:36.503Z,99.90
2017-12-19T18:01:04.405Z,99.90
2017-12-19T18:03:31.356Z,99.90
2017-12-19T18:05:58.250Z,99.90
2017-12-19T18:08:25.249Z,99.90
2017-12-19T18:10:52.138Z,99.90
2017-12-19T18:13:19.032Z,99.90
2017-12-19T18:15:46.015Z,99.90
2017-12-19T18:18:12.948Z,99.90
2017-12-19T18:20:39.956Z,99.90
2017-12-19T18:23:06.835Z,99.90
2017-12-19T18:25:33.866Z,99.90
2017-12-19T18:28:00.739Z,99.90
2017-12-19T18:30:27.647Z,99.90
2017-12-19T18:32:55.309Z,99.90
2017-12-19T18:35:22.241Z,99.90
2017-12-19T18:37:49.118Z,99.90
2017-12-19T18:40:16.063Z,99.90
2017-12-19T18:42:43.058Z,99.90
2017-12-19T18:45:10.855Z,99.90
2017-12-19T18:47:37.920Z,99.90
2017-12-19T18:50:04.814Z,99.90
2017-12-19T18:52:31.847Z,99.90
2017-12-19T18:54:58.753Z,99.90
2017-12-19T18:57:25.631Z,99.90
2017-12-19T18:59:52.766Z,99.90
2017-12-19T19:02:19.770Z,99.90
2017-12-19T19:04:46.793Z,99.90
2017-12-19T19:07:14.569Z,99.90
2017-12-19T19:09:41.812Z,99.90
2017-12-19T19:12:08.700Z,99.90
2017-12-19T19:14:36.995Z,99.90
2017-12-19T19:17:03.964Z,99.90
2017-12-19T19:19:31.523Z,99.90
2017-12-19T19:21:58.767Z,99.90
2017-12-19T19:24:25.650Z,99.90
2017-12-19T19:26:52.680Z,99.90
2017-12-19T19:29:19.651Z,99.90
2017-12-19T19:31:46.737Z,99.90
2017-12-19T19:34:13.661Z,99.90
2017-12-19T19:36:55.870Z,99.90
2017-12-19T19:39:34.107Z,99.90
2017-12-19T19:42:14.742Z,99.90
2017-12-19T19:44:53.204Z,99.90
2017-12-19T19:47:20.760Z,99.90
2017-12-19T19:49:47.803Z,99.90
2017-12-19T19:52:14.707Z,99.90
2017-12-19T19:54:42.875Z,99.90
2017-12-19T19:57:10.067Z,99.90
2017-12-19T19:59:37.066Z,99.90
2017-12-19T20:02:04.240Z,99.90
2017-12-19T20:04:43.915Z,99.90
2017-12-19T20:07:24.683Z,99.90
2017-12-19T20:10:06.207Z,99.90
2017-12-19T20:12:35.844Z,99.90
2017-12-19T20:15:03.243Z,99.90
2017-12-19T20:17:30.294Z,99.90
2017-12-19T20:20:08.781Z,99.90
2017-12-19T20:22:37.024Z,99.90
2017-12-19T20:25:04.716Z,99.90
2017-12-19T20:27:32.482Z,99.90
2017-12-19T20:30:14.018Z,99.90
2017-12-19T20:32:54.837Z,99.90
2017-12-19T20:35:34.059Z,99.90
2017-12-19T20:38:01.970Z,99.90
2017-12-19T20:40:32.605Z,99.90
2017-12-19T20:43:07.179Z,99.90
2017-12-19T20:45:35.240Z,99.90
2017-12-19T20:48:02.410Z,99.90
2017-12-19T20:50:29.652Z,99.90
2017-12-19T20:52:56.969Z,99.90
2017-12-19T20:55:27.053Z,99.90
2017-12-19T20:57:55.180Z,99.90
2017-12-19T21:00:35.062Z,99.90
2017-12-19T21:03:03.168Z,99.90
2017-12-19T21:05:42.822Z,99.90
2017-12-19T21:08:21.563Z,99.90
2017-12-19T21:11:00.412Z,99.90
2017-12-19T21:13:31.299Z,99.90
2017-12-19T21:16:09.677Z,99.90
2017-12-19T21:18:36.583Z,99.90
2017-12-19T21:21:05.346Z,99.90
2017-12-19T21:23:44.050Z,99.90
2017-12-19T21:26:12.172Z,99.90
2017-12-19T21:28:39.445Z,99.90
2017-12-19T21:31:15.324Z,99.90
2017-12-19T21:33:57.828Z,99.90
2017-12-19T21:36:34.047Z,99.90
2017-12-19T21:39:15.190Z,99.90
2017-12-19T21:41:42.556Z,99.90
2017-12-19T21:44:10.476Z,99.90
2017-12-19T21:46:38.516Z,99.90
2017-12-19T21:49:05.580Z,99.90
2017-12-19T21:51:32.636Z,99.90
2017-12-19T21:53:59.722Z,99.90
2017-12-19T21:56:26.755Z,99.90
2017-12-19T21:59:06.858Z,99.90
2017-12-19T22:01:44.036Z,99.90
2017-12-19T22:04:19.433Z,99.90
2017-12-19T22:06:56.804Z,99.90
2017-12-19T22:09:31.158Z,99.90
2017-12-19T22:12:11.849Z,99.90
2017-12-19T22:14:50.394Z,99.90
2017-12-19T22:17:31.425Z,99.90
2017-12-19T22:20:12.248Z,99.90
2017-12-19T22:22:54.421Z,99.90
2017-12-19T22:25:37.118Z,99.90
2017-12-19T22:28:20.375Z,99.90
2017-12-19T22:31:01.933Z,99.90
2017-12-19T22:33:37.979Z,99.90
2017-12-19T22:36:06.802Z,99.90
2017-12-19T22:38:36.556Z,99.90
2017-12-19T22:41:14.914Z,99.90
2017-12-19T22:43:55.258Z,99.90
2017-12-19T22:46:35.214Z,99.90
2017-12-19T22:49:11.765Z,99.90
2017-12-19T22:51:48.871Z,99.90
2017-12-19T22:54:27.925Z,99.90
2017-12-19T22:57:00.296Z,99.90
2017-12-19T22:59:27.884Z,99.90
2017-12-19T23:02:04.092Z,99.90
2017-12-19T23:04:41.949Z,99.90
2017-12-19T23:07:13.919Z,99.90
2017-12-19T23:09:53.164Z,99.90
2017-12-19T23:12:24.328Z,99.90
2017-12-19T23:14:54.196Z,99.90
2017-12-19T23:17:31.182Z,99.90
2017-12-19T23:20:05.876Z,99.90
2017-12-19T23:22:32.913Z,99.90
2017-12-19T23:24:59.888Z,99.90
2017-12-19T23:27:26.885Z,99.90
2017-12-19T23:30:06.518Z,99.90
2017-12-19T23:32:33.388Z,99.90
2017-12-19T23:35:00.364Z,99.90
2017-12-19T23:37:27.304Z,99.90
2017-12-19T23:39:54.183Z,99.90
2017-12-19T23:42:21.930Z,99.90
2017-12-19T23:44:48.836Z,99.90
2017-12-19T23:47:15.709Z,99.90
2017-12-19T23:49:42.643Z,99.90
2017-12-19T23:52:09.593Z,99.90
2017-12-19T23:54:36.477Z,99.90
2017-12-19T23:57:04.172Z,99.90
2017-12-19T23:59:31.043Z,99.90
